sensor_id;sensor_type;location;lat;lon;timestamp;pressure;altitude;pressure_sealevel;temperature;humidity
22000;BME280;11164;48.818;2.322;2024-01-16T00:01:05;100344.53;;;4.25;35.13
22000;BME280;11164;48.818;2.322;2024-01-16T00:03:30;100345.88;;;4.29;34.69
22000;BME280;11164;48.818;2.322;2024-01-16T00:05:56;100341.56;;;4.37;35.18
22000;BME280;11164;48.818;2.322;2024-01-16T00:08:22;100320.69;;;4.32;34.94
22000;BME280;11164;48.818;2.322;2024-01-16T00:10:47;100339.22;;;4.42;34.79
22000;BME280;11164;48.818;2.322;2024-01-16T00:13:13;100336.53;;;4.42;34.81
22000;BME280;11164;48.818;2.322;2024-01-16T00:15:38;100336.72;;;4.32;35.11
22000;BME280;11164;48.818;2.322;2024-01-16T00:18:06;100336.56;;;4.34;35.15
22000;BME280;11164;48.818;2.322;2024-01-16T00:20:33;100320.88;;;4.39;34.60
22000;BME280;11164;48.818;2.322;2024-01-16T00:22:59;100316.03;;;4.34;34.74
22000;BME280;11164;48.818;2.322;2024-01-16T00:25:24;100326.53;;;4.36;34.96
22000;BME280;11164;48.818;2.322;2024-01-16T00:27:50;100330.09;;;4.44;34.65
22000;BME280;11164;48.818;2.322;2024-01-16T00:30:15;100322.91;;;4.45;34.54
22000;BME280;11164;48.818;2.322;2024-01-16T00:32:40;100333.25;;;4.48;34.74
22000;BME280;11164;48.818;2.322;2024-01-16T00:35:06;100327.44;;;4.53;34.51
22000;BME280;11164;48.818;2.322;2024-01-16T00:37:31;100330.78;;;4.55;34.83
22000;BME280;11164;48.818;2.322;2024-01-16T00:39:57;100329.59;;;4.49;34.54
22000;BME280;11164;48.818;2.322;2024-01-16T00:42:22;100334.06;;;4.40;35.00
22000;BME280;11164;48.818;2.322;2024-01-16T00:44:47;100333.06;;;4.41;35.12
22000;BME280;11164;48.818;2.322;2024-01-16T00:47:13;100331.22;;;4.34;34.79
22000;BME280;11164;48.818;2.322;2024-01-16T00:49:38;100322.84;;;4.20;35.05
22000;BME280;11164;48.818;2.322;2024-01-16T00:52:03;100331.84;;;4.27;35.31
22000;BME280;11164;48.818;2.322;2024-01-16T00:54:29;100315.19;;;4.25;34.95
22000;BME280;11164;48.818;2.322;2024-01-16T00:56:54;100314.19;;;4.26;35.05
22000;BME280;11164;48.818;2.322;2024-01-16T00:59:27;100316.66;;;4.28;35.20
22000;BME280;11164;48.818;2.322;2024-01-16T01:01:52;100313.19;;;4.27;35.01
22000;BME280;11164;48.818;2.322;2024-01-16T01:04:18;100321.19;;;4.27;35.01
22000;BME280;11164;48.818;2.322;2024-01-16T01:06:43;100325.84;;;4.25;35.05
22000;BME280;11164;48.818;2.322;2024-01-16T01:09:09;100327.03;;;4.23;35.21
22000;BME280;11164;48.818;2.322;2024-01-16T01:11:39;100320.81;;;4.14;35.23
22000;BME280;11164;48.818;2.322;2024-01-16T01:14:05;100319.28;;;4.03;35.28
22000;BME280;11164;48.818;2.322;2024-01-16T01:16:31;100290.63;;;3.97;35.54
22000;BME280;11164;48.818;2.322;2024-01-16T01:18:56;100299.97;;;4.09;35.75
22000;BME280;11164;48.818;2.322;2024-01-16T01:21:22;100295.81;;;4.15;35.18
22000;BME280;11164;48.818;2.322;2024-01-16T01:23:47;100300.28;;;3.98;35.40
22000;BME280;11164;48.818;2.322;2024-01-16T01:26:12;100303.25;;;3.87;35.47
22000;BME280;11164;48.818;2.322;2024-01-16T01:28:39;100306.22;;;3.84;35.96
22000;BME280;11164;48.818;2.322;2024-01-16T01:31:05;100316.44;;;3.97;35.47
22000;BME280;11164;48.818;2.322;2024-01-16T01:33:33;100318.97;;;4.06;34.97
22000;BME280;11164;48.818;2.322;2024-01-16T01:35:58;100318.84;;;4.16;35.43
22000;BME280;11164;48.818;2.322;2024-01-16T01:38:24;100322.84;;;4.20;35.39
22000;BME280;11164;48.818;2.322;2024-01-16T01:40:49;100319.66;;;4.17;34.75
22000;BME280;11164;48.818;2.322;2024-01-16T01:45:47;100334.63;;;4.01;35.32
22000;BME280;11164;48.818;2.322;2024-01-16T01:48:20;100336.63;;;3.99;35.51
22000;BME280;11164;48.818;2.322;2024-01-16T01:50:45;100345.63;;;3.98;35.66
22000;BME280;11164;48.818;2.322;2024-01-16T01:53:11;100337.78;;;3.88;34.96
22000;BME280;11164;48.818;2.322;2024-01-16T01:55:36;100345.88;;;3.79;35.36
22000;BME280;11164;48.818;2.322;2024-01-16T01:58:02;100339.06;;;3.84;35.94
22000;BME280;11164;48.818;2.322;2024-01-16T02:00:29;100341.94;;;3.91;35.19
22000;BME280;11164;48.818;2.322;2024-01-16T02:02:55;100333.66;;;4.02;34.98
22000;BME280;11164;48.818;2.322;2024-01-16T02:05:20;100334.28;;;3.96;35.35
22000;BME280;11164;48.818;2.322;2024-01-16T02:07:46;100335.66;;;4.00;35.58
22000;BME280;11164;48.818;2.322;2024-01-16T02:10:11;100345.47;;;4.00;35.66
22000;BME280;11164;48.818;2.322;2024-01-16T02:12:37;100340.78;;;4.02;35.02
22000;BME280;11164;48.818;2.322;2024-01-16T02:15:02;100333.81;;;4.01;35.39
22000;BME280;11164;48.818;2.322;2024-01-16T02:17:28;100340.63;;;4.03;35.44
22000;BME280;11164;48.818;2.322;2024-01-16T02:19:53;100330.47;;;3.99;35.80
22000;BME280;11164;48.818;2.322;2024-01-16T02:22:20;100329.13;;;4.03;35.69
22000;BME280;11164;48.818;2.322;2024-01-16T02:24:49;100325.66;;;4.02;35.60
22000;BME280;11164;48.818;2.322;2024-01-16T02:27:15;100315.59;;;3.96;35.87
22000;BME280;11164;48.818;2.322;2024-01-16T02:29:41;100324.31;;;4.06;35.07
22000;BME280;11164;48.818;2.322;2024-01-16T02:32:07;100318.47;;;4.03;35.04
22000;BME280;11164;48.818;2.322;2024-01-16T02:34:33;100314.31;;;4.00;35.31
22000;BME280;11164;48.818;2.322;2024-01-16T02:36:58;100309.78;;;4.01;35.66
22000;BME280;11164;48.818;2.322;2024-01-16T02:39:23;100306.63;;;3.97;35.67
22000;BME280;11164;48.818;2.322;2024-01-16T02:41:50;100305.09;;;3.95;35.59
22000;BME280;11164;48.818;2.322;2024-01-16T02:44:15;100299.72;;;3.78;35.60
22000;BME280;11164;48.818;2.322;2024-01-16T02:46:40;100296.91;;;3.80;35.96
22000;BME280;11164;48.818;2.322;2024-01-16T02:49:06;100291.88;;;3.77;35.59
22000;BME280;11164;48.818;2.322;2024-01-16T02:51:32;100290.88;;;3.69;35.69
22000;BME280;11164;48.818;2.322;2024-01-16T02:53:57;100285.22;;;3.72;36.37
22000;BME280;11164;48.818;2.322;2024-01-16T02:56:23;100283.06;;;3.76;35.76
22000;BME280;11164;48.818;2.322;2024-01-16T02:58:48;100284.75;;;3.85;35.56
22000;BME280;11164;48.818;2.322;2024-01-16T03:01:14;100280.75;;;3.81;35.46
22000;BME280;11164;48.818;2.322;2024-01-16T03:03:40;100285.22;;;3.81;35.84
22000;BME280;11164;48.818;2.322;2024-01-16T03:06:05;100283.41;;;3.81;35.65
22000;BME280;11164;48.818;2.322;2024-01-16T03:08:30;100276.19;;;3.73;35.92
22000;BME280;11164;48.818;2.322;2024-01-16T03:10:56;100274.88;;;3.78;35.63
22000;BME280;11164;48.818;2.322;2024-01-16T03:13:22;100283.53;;;3.71;35.80
22000;BME280;11164;48.818;2.322;2024-01-16T03:15:47;100270.88;;;3.73;36.03
22000;BME280;11164;48.818;2.322;2024-01-16T03:18:12;100262.13;;;3.55;36.52
22000;BME280;11164;48.818;2.322;2024-01-16T03:20:38;100252.44;;;3.46;36.00
22000;BME280;11164;48.818;2.322;2024-01-16T03:23:03;100269.34;;;3.63;35.57
22000;BME280;11164;48.818;2.322;2024-01-16T03:25:29;100269.22;;;3.72;35.77
22000;BME280;11164;48.818;2.322;2024-01-16T03:27:54;100265.84;;;3.70;35.55
22000;BME280;11164;48.818;2.322;2024-01-16T03:30:20;100270.47;;;3.60;35.74
22000;BME280;11164;48.818;2.322;2024-01-16T03:32:45;100273.41;;;3.41;35.65
22000;BME280;11164;48.818;2.322;2024-01-16T03:35:10;100285.38;;;3.37;36.50
22000;BME280;11164;48.818;2.322;2024-01-16T03:37:37;100276.72;;;3.34;36.56
22000;BME280;11164;48.818;2.322;2024-01-16T03:40:06;100270.94;;;3.47;36.69
22000;BME280;11164;48.818;2.322;2024-01-16T03:42:32;100271.25;;;3.36;36.02
22000;BME280;11164;48.818;2.322;2024-01-16T03:44:57;100274.59;;;3.12;36.20
22000;BME280;11164;48.818;2.322;2024-01-16T03:47:23;100271.44;;;3.16;35.90
22000;BME280;11164;48.818;2.322;2024-01-16T03:49:48;100268.94;;;3.15;36.26
22000;BME280;11164;48.818;2.322;2024-01-16T03:52:13;100264.31;;;3.17;36.74
22000;BME280;11164;48.818;2.322;2024-01-16T03:54:39;100264.25;;;3.09;36.33
22000;BME280;11164;48.818;2.322;2024-01-16T03:57:04;100261.06;;;3.05;36.55
22000;BME280;11164;48.818;2.322;2024-01-16T03:59:29;100258.47;;;3.13;36.63
22000;BME280;11164;48.818;2.322;2024-01-16T04:01:55;100254.84;;;3.23;36.03
22000;BME280;11164;48.818;2.322;2024-01-16T04:04:20;100263.00;;;3.21;36.73
22000;BME280;11164;48.818;2.322;2024-01-16T04:06:46;100268.84;;;3.25;36.30
22000;BME280;11164;48.818;2.322;2024-01-16T04:09:11;100256.50;;;3.24;36.11
22000;BME280;11164;48.818;2.322;2024-01-16T04:11:37;100257.09;;;3.09;36.62
22000;BME280;11164;48.818;2.322;2024-01-16T04:14:02;100262.88;;;3.05;36.90
22000;BME280;11164;48.818;2.322;2024-01-16T04:16:28;100240.91;;;3.03;36.45
22000;BME280;11164;48.818;2.322;2024-01-16T04:18:53;100263.53;;;2.98;36.87
22000;BME280;11164;48.818;2.322;2024-01-16T04:21:18;100255.06;;;3.03;37.00
22000;BME280;11164;48.818;2.322;2024-01-16T04:23:44;100254.28;;;3.11;36.38
22000;BME280;11164;48.818;2.322;2024-01-16T04:26:09;100241.31;;;3.16;36.39
22000;BME280;11164;48.818;2.322;2024-01-16T04:28:34;100240.19;;;2.92;36.74
22000;BME280;11164;48.818;2.322;2024-01-16T04:31:02;100227.53;;;2.68;36.77
22000;BME280;11164;48.818;2.322;2024-01-16T04:33:27;100236.53;;;2.67;36.78
22000;BME280;11164;48.818;2.322;2024-01-16T04:35:53;100226.13;;;2.82;36.71
22000;BME280;11164;48.818;2.322;2024-01-16T04:38:18;100216.84;;;2.86;36.47
22000;BME280;11164;48.818;2.322;2024-01-16T04:40:43;100224.31;;;2.83;36.82
22000;BME280;11164;48.818;2.322;2024-01-16T04:43:08;100220.50;;;2.85;36.72
22000;BME280;11164;48.818;2.322;2024-01-16T04:45:34;100223.47;;;2.82;36.57
22000;BME280;11164;48.818;2.322;2024-01-16T04:47:59;100215.53;;;2.90;36.64
22000;BME280;11164;48.818;2.322;2024-01-16T04:50:25;100229.13;;;3.05;36.53
22000;BME280;11164;48.818;2.322;2024-01-16T04:52:56;100214.13;;;3.04;36.64
22000;BME280;11164;48.818;2.322;2024-01-16T04:55:21;100213.44;;;3.02;36.70
22000;BME280;11164;48.818;2.322;2024-01-16T04:57:47;100212.56;;;2.93;36.74
22000;BME280;11164;48.818;2.322;2024-01-16T05:00:12;100215.84;;;2.87;36.85
22000;BME280;11164;48.818;2.322;2024-01-16T05:02:38;100203.63;;;2.76;36.49
22000;BME280;11164;48.818;2.322;2024-01-16T05:05:05;100192.09;;;2.68;36.72
22000;BME280;11164;48.818;2.322;2024-01-16T05:07:31;100194.97;;;2.74;36.29
22000;BME280;11164;48.818;2.322;2024-01-16T05:09:56;100186.94;;;2.66;37.45
22000;BME280;11164;48.818;2.322;2024-01-16T05:12:21;100195.13;;;2.73;36.91
22000;BME280;11164;48.818;2.322;2024-01-16T05:14:47;100184.50;;;2.73;36.91
22000;BME280;11164;48.818;2.322;2024-01-16T05:17:13;100192.69;;;2.79;36.62
22000;BME280;11164;48.818;2.322;2024-01-16T05:19:38;100183.53;;;2.82;36.77
22000;BME280;11164;48.818;2.322;2024-01-16T05:22:03;100187.34;;;2.79;36.25
22000;BME280;11164;48.818;2.322;2024-01-16T05:24:29;100170.88;;;2.76;36.75
22000;BME280;11164;48.818;2.322;2024-01-16T05:26:54;100166.41;;;2.85;36.67
22000;BME280;11164;48.818;2.322;2024-01-16T05:29:19;100153.56;;;2.80;36.52
22000;BME280;11164;48.818;2.322;2024-01-16T05:31:45;100168.25;;;2.84;36.36
22000;BME280;11164;48.818;2.322;2024-01-16T05:34:10;100172.19;;;2.72;36.76
22000;BME280;11164;48.818;2.322;2024-01-16T05:36:36;100176.25;;;2.58;37.31
22000;BME280;11164;48.818;2.322;2024-01-16T05:39:02;100175.38;;;2.75;36.88
22000;BME280;11164;48.818;2.322;2024-01-16T05:41:31;100180.44;;;2.95;36.66
22000;BME280;11164;48.818;2.322;2024-01-16T05:43:57;100181.94;;;2.97;36.36
22000;BME280;11164;48.818;2.322;2024-01-16T05:46:22;100178.66;;;3.04;35.86
22000;BME280;11164;48.818;2.322;2024-01-16T05:48:47;100177.06;;;3.19;35.90
22000;BME280;11164;48.818;2.322;2024-01-16T05:51:13;100175.75;;;3.23;35.51
22000;BME280;11164;48.818;2.322;2024-01-16T05:53:38;100165.41;;;3.20;36.40
22000;BME280;11164;48.818;2.322;2024-01-16T05:56:03;100161.28;;;3.26;36.29
22000;BME280;11164;48.818;2.322;2024-01-16T05:58:29;100155.59;;;3.21;36.24
22000;BME280;11164;48.818;2.322;2024-01-16T06:00:54;100164.78;;;3.34;36.63
22000;BME280;11164;48.818;2.322;2024-01-16T06:03:20;100162.94;;;3.27;35.91
22000;BME280;11164;48.818;2.322;2024-01-16T06:05:46;100152.41;;;3.17;36.45
22000;BME280;11164;48.818;2.322;2024-01-16T06:08:11;100141.56;;;3.10;36.59
22000;BME280;11164;48.818;2.322;2024-01-16T06:10:36;100142.19;;;3.04;36.51
22000;BME280;11164;48.818;2.322;2024-01-16T06:13:02;100154.84;;;3.02;37.01
22000;BME280;11164;48.818;2.322;2024-01-16T06:15:27;100146.81;;;2.94;36.79
22000;BME280;11164;48.818;2.322;2024-01-16T06:17:52;100152.19;;;3.02;36.41
22000;BME280;11164;48.818;2.322;2024-01-16T06:20:18;100153.56;;;3.14;35.97
22000;BME280;11164;48.818;2.322;2024-01-16T06:22:43;100148.75;;;3.18;36.04
22000;BME280;11164;48.818;2.322;2024-01-16T06:25:09;100140.69;;;3.02;36.42
22000;BME280;11164;48.818;2.322;2024-01-16T06:27:34;100158.47;;;2.93;36.96
22000;BME280;11164;48.818;2.322;2024-01-16T06:29:59;100158.34;;;3.03;36.61
22000;BME280;11164;48.818;2.322;2024-01-16T06:32:25;100156.88;;;3.16;36.65
22000;BME280;11164;48.818;2.322;2024-01-16T06:34:51;100151.06;;;3.13;36.53
22000;BME280;11164;48.818;2.322;2024-01-16T06:37:17;100153.88;;;3.11;36.55
22000;BME280;11164;48.818;2.322;2024-01-16T06:39:43;100137.44;;;3.24;36.74
22000;BME280;11164;48.818;2.322;2024-01-16T06:42:08;100151.00;;;3.05;36.34
22000;BME280;11164;48.818;2.322;2024-01-16T06:44:34;100157.00;;;2.98;37.21
22000;BME280;11164;48.818;2.322;2024-01-16T06:46:59;100159.34;;;3.02;37.18
22000;BME280;11164;48.818;2.322;2024-01-16T06:49:25;100161.72;;;3.13;36.72
22000;BME280;11164;48.818;2.322;2024-01-16T06:51:50;100167.53;;;3.16;36.79
22000;BME280;11164;48.818;2.322;2024-01-16T06:54:15;100150.94;;;3.23;37.01
22000;BME280;11164;48.818;2.322;2024-01-16T06:56:41;100160.06;;;3.20;36.04
22000;BME280;11164;48.818;2.322;2024-01-16T06:59:06;100164.28;;;3.31;36.49
22000;BME280;11164;48.818;2.322;2024-01-16T07:01:31;100160.81;;;3.39;36.59
22000;BME280;11164;48.818;2.322;2024-01-16T07:03:57;100145.28;;;3.34;36.47
22000;BME280;11164;48.818;2.322;2024-01-16T07:06:22;100160.31;;;3.43;36.21
22000;BME280;11164;48.818;2.322;2024-01-16T07:08:47;100163.22;;;3.15;36.55
22000;BME280;11164;48.818;2.322;2024-01-16T07:11:13;100162.56;;;3.13;36.80
22000;BME280;11164;48.818;2.322;2024-01-16T07:13:43;100159.88;;;3.05;37.38
22000;BME280;11164;48.818;2.322;2024-01-16T07:16:11;100165.69;;;3.09;36.87
22000;BME280;11164;48.818;2.322;2024-01-16T07:18:38;100178.88;;;3.19;36.64
22000;BME280;11164;48.818;2.322;2024-01-16T07:21:03;100181.94;;;3.32;36.67
22000;BME280;11164;48.818;2.322;2024-01-16T07:23:29;100175.47;;;3.34;36.18
22000;BME280;11164;48.818;2.322;2024-01-16T07:25:55;100174.97;;;3.05;36.70
22000;BME280;11164;48.818;2.322;2024-01-16T07:28:20;100169.09;;;2.85;37.20
22000;BME280;11164;48.818;2.322;2024-01-16T07:30:47;100174.16;;;2.70;37.38
22000;BME280;11164;48.818;2.322;2024-01-16T07:33:12;100173.53;;;2.76;37.54
22000;BME280;11164;48.818;2.322;2024-01-16T07:35:38;100160.53;;;2.73;37.47
22000;BME280;11164;48.818;2.322;2024-01-16T07:38:06;100164.59;;;2.85;37.07
22000;BME280;11164;48.818;2.322;2024-01-16T07:40:31;100167.00;;;3.05;36.92
22000;BME280;11164;48.818;2.322;2024-01-16T07:42:56;100163.59;;;2.86;37.88
22000;BME280;11164;48.818;2.322;2024-01-16T07:45:22;100160.78;;;2.96;37.57
22000;BME280;11164;48.818;2.322;2024-01-16T07:47:47;100168.41;;;3.17;37.04
22000;BME280;11164;48.818;2.322;2024-01-16T07:50:12;100151.94;;;3.30;36.95
22000;BME280;11164;48.818;2.322;2024-01-16T07:52:38;100161.47;;;3.41;36.73
22000;BME280;11164;48.818;2.322;2024-01-16T07:55:04;100169.47;;;3.41;37.00
22000;BME280;11164;48.818;2.322;2024-01-16T07:57:29;100176.47;;;3.42;36.76
22000;BME280;11164;48.818;2.322;2024-01-16T07:59:55;100173.47;;;3.37;36.68
22000;BME280;11164;48.818;2.322;2024-01-16T08:02:20;100170.81;;;3.45;36.48
22000;BME280;11164;48.818;2.322;2024-01-16T08:04:46;100172.16;;;3.49;36.80
22000;BME280;11164;48.818;2.322;2024-01-16T08:07:11;100180.47;;;3.46;36.59
22000;BME280;11164;48.818;2.322;2024-01-16T08:09:36;100183.28;;;3.44;36.94
22000;BME280;11164;48.818;2.322;2024-01-16T08:12:02;100169.28;;;3.26;37.26
22000;BME280;11164;48.818;2.322;2024-01-16T08:14:28;100175.75;;;3.23;37.39
22000;BME280;11164;48.818;2.322;2024-01-16T08:16:54;100176.94;;;3.37;37.11
22000;BME280;11164;48.818;2.322;2024-01-16T08:19:19;100169.47;;;3.41;36.79
22000;BME280;11164;48.818;2.322;2024-01-16T08:21:44;100154.47;;;3.48;36.86
22000;BME280;11164;48.818;2.322;2024-01-16T08:24:09;100174.34;;;3.62;36.76
22000;BME280;11164;48.818;2.322;2024-01-16T08:26:35;100174.38;;;3.70;36.47
22000;BME280;11164;48.818;2.322;2024-01-16T08:29:00;100177.19;;;3.68;36.39
22000;BME280;11164;48.818;2.322;2024-01-16T08:31:25;100164.53;;;3.62;37.03
22000;BME280;11164;48.818;2.322;2024-01-16T08:33:51;100191.88;;;3.72;36.89
22000;BME280;11164;48.818;2.322;2024-01-16T08:36:16;100184.56;;;3.75;36.75
22000;BME280;11164;48.818;2.322;2024-01-16T08:38:42;100183.53;;;3.76;37.10
22000;BME280;11164;48.818;2.322;2024-01-16T08:41:08;100191.06;;;3.97;36.96
22000;BME280;11164;48.818;2.322;2024-01-16T08:43:34;100187.56;;;3.88;37.04
22000;BME280;11164;48.818;2.322;2024-01-16T08:46:00;100185.06;;;4.03;36.79
22000;BME280;11164;48.818;2.322;2024-01-16T08:48:25;100181.56;;;3.94;36.94
22000;BME280;11164;48.818;2.322;2024-01-16T08:50:52;100168.09;;;4.04;36.44
22000;BME280;11164;48.818;2.322;2024-01-16T08:53:19;100173.91;;;4.07;36.65
22000;BME280;11164;48.818;2.322;2024-01-16T08:55:44;100171.38;;;4.14;36.29
22000;BME280;11164;48.818;2.322;2024-01-16T08:58:10;100164.22;;;4.06;36.77
22000;BME280;11164;48.818;2.322;2024-01-16T09:00:35;100176.22;;;4.10;36.57
22000;BME280;11164;48.818;2.322;2024-01-16T09:03:00;100176.22;;;4.10;36.88
22000;BME280;11164;48.818;2.322;2024-01-16T09:05:26;100154.72;;;4.12;36.67
22000;BME280;11164;48.818;2.322;2024-01-16T09:07:52;100161.22;;;3.93;36.66
22000;BME280;11164;48.818;2.322;2024-01-16T09:10:20;100161.22;;;3.77;37.07
22000;BME280;11164;48.818;2.322;2024-01-16T09:12:45;100163.53;;;3.63;37.53
22000;BME280;11164;48.818;2.322;2024-01-16T09:15:10;100162.84;;;3.61;37.45
22000;BME280;11164;48.818;2.322;2024-01-16T09:17:36;100171.50;;;3.55;36.97
22000;BME280;11164;48.818;2.322;2024-01-16T09:20:01;100157.81;;;3.42;37.16
22000;BME280;11164;48.818;2.322;2024-01-16T09:22:27;100157.25;;;3.22;37.80
22000;BME280;11164;48.818;2.322;2024-01-16T09:24:52;100164.28;;;3.31;37.36
22000;BME280;11164;48.818;2.322;2024-01-16T09:27:17;100155.75;;;3.27;37.51
22000;BME280;11164;48.818;2.322;2024-01-16T09:29:43;100156.09;;;3.32;37.16
22000;BME280;11164;48.818;2.322;2024-01-16T09:32:08;100166.66;;;3.50;36.74
22000;BME280;11164;48.818;2.322;2024-01-16T09:34:34;100167.88;;;3.72;36.82
22000;BME280;11164;48.818;2.322;2024-01-16T09:36:59;100165.41;;;3.96;36.70
22000;BME280;11164;48.818;2.322;2024-01-16T09:39:27;100161.56;;;4.15;36.56
22000;BME280;11164;48.818;2.322;2024-01-16T09:41:52;100164.06;;;4.08;36.29
22000;BME280;11164;48.818;2.322;2024-01-16T09:44:18;100153.56;;;4.06;36.99
22000;BME280;11164;48.818;2.322;2024-01-16T09:46:44;100145.56;;;4.23;36.62
22000;BME280;11164;48.818;2.322;2024-01-16T09:49:14;100136.53;;;4.32;36.70
22000;BME280;11164;48.818;2.322;2024-01-16T09:51:40;100145.88;;;4.44;36.30
22000;BME280;11164;48.818;2.322;2024-01-16T09:54:05;100137.53;;;4.47;36.21
22000;BME280;11164;48.818;2.322;2024-01-16T09:56:35;100132.53;;;4.53;36.71
22000;BME280;11164;48.818;2.322;2024-01-16T09:59:05;100140.66;;;4.67;36.35
22000;BME280;11164;48.818;2.322;2024-01-16T10:01:31;100146.16;;;4.74;36.25
22000;BME280;11164;48.818;2.322;2024-01-16T10:03:58;100147.44;;;4.86;36.54
22000;BME280;11164;48.818;2.322;2024-01-16T10:06:23;100137.63;;;4.87;36.20
22000;BME280;11164;48.818;2.322;2024-01-16T10:08:49;100133.19;;;4.63;36.64
22000;BME280;11164;48.818;2.322;2024-01-16T10:11:14;100136.44;;;4.81;36.37
22000;BME280;11164;48.818;2.322;2024-01-16T10:13:40;100134.56;;;4.90;36.42
22000;BME280;11164;48.818;2.322;2024-01-16T10:16:06;100140.53;;;4.53;36.70
22000;BME280;11164;48.818;2.322;2024-01-16T10:18:33;100138.84;;;4.60;36.92
22000;BME280;11164;48.818;2.322;2024-01-16T10:20:59;100125.72;;;4.98;36.54
22000;BME280;11164;48.818;2.322;2024-01-16T10:23:26;100139.00;;;5.06;36.48
22000;BME280;11164;48.818;2.322;2024-01-16T10:26:24;100134.00;;;4.72;35.57
22000;BME280;11164;48.818;2.322;2024-01-16T10:28:49;100135.34;;;4.59;37.12
22000;BME280;11164;48.818;2.322;2024-01-16T10:31:15;100132.66;;;4.67;36.96
22000;BME280;11164;48.818;2.322;2024-01-16T10:33:40;100120.28;;;5.14;36.38
22000;BME280;11164;48.818;2.322;2024-01-16T10:38:42;100136.84;;;5.10;36.46
22000;BME280;11164;48.818;2.322;2024-01-16T10:41:13;100131.38;;;4.95;36.90
22000;BME280;11164;48.818;2.322;2024-01-16T10:43:39;100127.16;;;5.09;37.15
22000;BME280;11164;48.818;2.322;2024-01-16T10:46:15;100119.94;;;5.17;36.41
22000;BME280;11164;48.818;2.322;2024-01-16T10:48:43;100127.13;;;5.17;36.58
22000;BME280;11164;48.818;2.322;2024-01-16T10:51:11;100121.13;;;5.46;36.53
22000;BME280;11164;48.818;2.322;2024-01-16T10:53:42;100112.44;;;5.67;36.28
22000;BME280;11164;48.818;2.322;2024-01-16T10:56:10;100098.59;;;5.87;35.98
22000;BME280;11164;48.818;2.322;2024-01-16T10:58:40;100095.63;;;6.20;35.83
22000;BME280;11164;48.818;2.322;2024-01-16T11:01:10;100089.84;;;6.46;35.30
22000;BME280;11164;48.818;2.322;2024-01-16T11:03:47;100098.75;;;6.23;35.62
22000;BME280;11164;48.818;2.322;2024-01-16T11:06:16;100095.09;;;5.86;36.28
22000;BME280;11164;48.818;2.322;2024-01-16T11:08:42;100095.56;;;5.90;36.43
22000;BME280;11164;48.818;2.322;2024-01-16T11:11:10;100087.53;;;5.90;36.54
22000;BME280;11164;48.818;2.322;2024-01-16T11:13:38;100094.06;;;5.64;36.82
22000;BME280;11164;48.818;2.322;2024-01-16T11:16:04;100085.59;;;5.98;36.24
22000;BME280;11164;48.818;2.322;2024-01-16T11:18:31;100089.78;;;6.31;36.10
22000;BME280;11164;48.818;2.322;2024-01-16T11:20:58;100091.91;;;6.44;36.11
22000;BME280;11164;48.818;2.322;2024-01-16T11:23:24;100087.66;;;6.11;36.06
22000;BME280;11164;48.818;2.322;2024-01-16T11:25:49;100077.66;;;6.43;35.86
22000;BME280;11164;48.818;2.322;2024-01-16T11:28:15;100067.69;;;6.82;35.79
22000;BME280;11164;48.818;2.322;2024-01-16T11:30:41;100075.81;;;6.88;35.13
22000;BME280;11164;48.818;2.322;2024-01-16T11:35:59;100085.03;;;7.01;35.47
22000;BME280;11164;48.818;2.322;2024-01-16T11:38:25;100075.41;;;6.91;35.19
22000;BME280;11164;48.818;2.322;2024-01-16T11:40:54;100083.75;;;6.82;35.50
22000;BME280;11164;48.818;2.322;2024-01-16T11:46:02;100089.53;;;7.37;34.99
22000;BME280;11164;48.818;2.322;2024-01-16T11:48:27;100068.22;;;7.72;34.59
22000;BME280;11164;48.818;2.322;2024-01-16T11:50:53;100088.78;;;7.64;34.96
22000;BME280;11164;48.818;2.322;2024-01-16T11:58:48;100066.88;;;7.39;34.72
22000;BME280;11164;48.818;2.322;2024-01-16T12:01:16;100060.75;;;7.45;35.03
22000;BME280;11164;48.818;2.322;2024-01-16T12:03:42;100060.75;;;7.67;35.01
22000;BME280;11164;48.818;2.322;2024-01-16T12:06:08;100055.50;;;8.02;34.38
22000;BME280;11164;48.818;2.322;2024-01-16T12:08:34;100046.41;;;7.81;34.82
22000;BME280;11164;48.818;2.322;2024-01-16T12:11:01;100055.00;;;7.70;35.25
22000;BME280;11164;48.818;2.322;2024-01-16T12:13:27;100037.28;;;7.76;34.73
22000;BME280;11164;48.818;2.322;2024-01-16T12:16:01;100037.78;;;7.86;33.94
22000;BME280;11164;48.818;2.322;2024-01-16T12:18:31;100046.13;;;7.91;34.10
22000;BME280;11164;48.818;2.322;2024-01-16T12:20:57;100033.56;;;7.98;34.21
22000;BME280;11164;48.818;2.322;2024-01-16T12:23:23;100017.09;;;8.01;34.34
22000;BME280;11164;48.818;2.322;2024-01-16T12:25:52;100017.81;;;8.23;34.02
22000;BME280;11164;48.818;2.322;2024-01-16T12:28:24;100013.13;;;8.32;33.90
22000;BME280;11164;48.818;2.322;2024-01-16T12:30:50;99995.09;;;8.19;33.63
22000;BME280;11164;48.818;2.322;2024-01-16T12:33:21;99989.69;;;8.13;33.68
22000;BME280;11164;48.818;2.322;2024-01-16T12:35:47;99979.38;;;7.88;34.04
22000;BME280;11164;48.818;2.322;2024-01-16T12:38:13;99974.31;;;8.00;34.13
22000;BME280;11164;48.818;2.322;2024-01-16T12:40:40;99977.81;;;8.00;33.84
22000;BME280;11164;48.818;2.322;2024-01-16T12:43:07;99962.44;;;7.87;33.69
22000;BME280;11164;48.818;2.322;2024-01-16T12:45:34;99955.59;;;7.28;34.43
22000;BME280;11164;48.818;2.322;2024-01-16T12:48:01;99950.31;;;7.42;34.58
22000;BME280;11164;48.818;2.322;2024-01-16T12:50:29;99948.34;;;7.50;34.08
22000;BME280;11164;48.818;2.322;2024-01-16T12:53:05;99945.25;;;7.54;33.03
22000;BME280;11164;48.818;2.322;2024-01-16T12:55:32;99935.59;;;7.87;33.52
22000;BME280;11164;48.818;2.322;2024-01-16T12:58:20;99935.16;;;7.84;31.39
22000;BME280;11164;48.818;2.322;2024-01-16T13:00:47;99940.06;;;7.80;33.53
22000;BME280;11164;48.818;2.322;2024-01-16T13:05:45;99929.59;;;7.57;33.96
22000;BME280;11164;48.818;2.322;2024-01-16T13:08:19;99920.28;;;7.25;33.32
22000;BME280;11164;48.818;2.322;2024-01-16T13:10:46;99927.84;;;7.15;33.88
22000;BME280;11164;48.818;2.322;2024-01-16T13:13:15;99911.22;;;7.26;33.89